Terminal Aerodrome Forecast
Issued by NWS Atlanta, GA

Home | Current Version | Previous Version | Text Only | Print | Product List | Glossary On
Versions: 1 2 3 4 5 6 7 8 9 10 11 12 13 14 15 16 17 18 19 20 21 22 23 24 25 26 27 28 29 30 31 32 33 34 35 36 37 38 39 40
000
FTUS42 KFFC 260334 AAB
TAFATL
TAF AMD
KATL 260334Z 2604/2706 07010KT 5SM -RA BR OVC006
     FM260700 35005KT 5SM -RASN BR OVC005
     FM260900 35005KT 5SM -SN BR OVC005
     FM261100 35005KT 3SM BR OVC005
     FM261300 32004KT P6SM OVC007
     FM262000 32007KT P6SM BKN012=

USA.gov is the U.S. government's official web portal to all federal, state and local government web resources and services.